createdAt,value
2023-03-03T00:02:18.142Z,14.75
2023-03-03T00:04:46.410Z,15.50
2023-03-03T00:07:22.411Z,14.75
2023-03-03T00:09:51.016Z,16.25
2023-03-03T00:12:28.559Z,16.00
2023-03-03T00:14:57.074Z,16.50
2023-03-03T00:17:28.236Z,16.75
2023-03-03T00:19:57.195Z,18.75
2023-03-03T00:22:37.469Z,16.75
2023-03-03T00:25:32.157Z,18.25
2023-03-03T00:28:18.494Z,20.25
2023-03-03T00:30:46.839Z,17.25
2023-03-03T00:33:36.353Z,15.25
2023-03-03T00:36:33.681Z,16.00
2023-03-03T00:39:26.887Z,15.75
2023-03-03T00:41:55.511Z,19.00
2023-03-03T00:44:49.235Z,15.00
2023-03-03T00:47:31.593Z,17.75
2023-03-03T00:50:09.141Z,16.00
2023-03-03T00:52:46.005Z,19.00
2023-03-03T00:55:14.310Z,18.25
2023-03-03T00:57:42.641Z,16.50
2023-03-03T01:00:12.504Z,13.25
2023-03-03T01:02:40.886Z,15.00
2023-03-03T01:05:17.587Z,14.25
2023-03-03T01:07:45.909Z,14.75
2023-03-03T01:10:14.814Z,17.00
2023-03-03T01:12:43.192Z,14.50
2023-03-03T01:15:13.833Z,16.75
2023-03-03T01:17:42.564Z,17.25
2023-03-03T01:20:13.725Z,16.75
2023-03-03T01:22:42.443Z,15.25
2023-03-03T01:25:11.648Z,17.00
2023-03-03T01:27:40.180Z,16.50
2023-03-03T01:30:10.244Z,15.50
2023-03-03T01:32:38.812Z,17.75
2023-03-03T01:35:07.641Z,19.75
2023-03-03T01:37:37.184Z,19.00
2023-03-03T01:40:08.996Z,17.75
2023-03-03T01:42:37.337Z,18.50
2023-03-03T01:45:17.678Z,18.25
2023-03-03T01:47:57.286Z,19.25
2023-03-03T01:50:39.430Z,15.00
2023-03-03T01:53:21.501Z,17.50
2023-03-03T01:55:52.352Z,18.00
2023-03-03T01:58:30.062Z,18.25
2023-03-03T02:01:05.478Z,17.25
2023-03-03T02:03:35.256Z,18.25
2023-03-03T02:06:11.186Z,15.75
2023-03-03T02:09:07.308Z,16.50
2023-03-03T02:11:39.157Z,17.25
2023-03-03T02:14:07.564Z,16.25
2023-03-03T02:16:35.959Z,19.00
2023-03-03T02:19:08.075Z,16.00
2023-03-03T02:21:36.426Z,16.25
2023-03-03T02:24:51.731Z,16.50
2023-03-03T02:27:20.675Z,16.25
2023-03-03T02:29:49.084Z,18.50
2023-03-03T02:32:17.414Z,16.50
2023-03-03T02:34:53.499Z,17.75
2023-03-03T02:37:22.335Z,17.25
2023-03-03T02:39:50.630Z,16.00
2023-03-03T02:42:27.000Z,17.00
2023-03-03T02:44:55.476Z,16.00
2023-03-03T02:47:23.764Z,20.50
2023-03-03T02:49:52.048Z,18.75
2023-03-03T02:52:20.350Z,17.75
2023-03-03T02:54:48.895Z,17.75
2023-03-03T02:57:17.298Z,16.50
2023-03-03T02:59:45.654Z,16.75
2023-03-03T03:02:14.048Z,16.25
2023-03-03T03:04:42.633Z,16.50
2023-03-03T03:07:11.091Z,15.50
2023-03-03T03:09:39.574Z,16.00
2023-03-03T03:12:08.581Z,14.00
2023-03-03T03:14:37.042Z,14.25
2023-03-03T03:17:05.857Z,16.25
2023-03-03T03:19:34.127Z,15.25
2023-03-03T03:22:02.544Z,15.75
2023-03-03T03:24:30.858Z,16.00
2023-03-03T03:26:59.143Z,16.00
2023-03-03T03:29:27.457Z,14.50
2023-03-03T03:31:55.824Z,14.75
2023-03-03T03:34:24.235Z,15.00
2023-03-03T03:36:52.542Z,15.25
2023-03-03T03:39:21.422Z,14.25
2023-03-03T03:41:49.710Z,16.00
2023-03-03T03:44:18.027Z,14.00
2023-03-03T03:46:46.745Z,14.75
2023-03-03T03:49:15.061Z,14.50
2023-03-03T03:51:43.402Z,14.00
2023-03-03T03:54:12.016Z,13.50
2023-03-03T03:56:40.578Z,15.50
2023-03-03T03:59:09.571Z,16.50
2023-03-03T04:01:37.902Z,14.50
2023-03-03T04:04:06.607Z,14.25
2023-03-03T04:06:35.056Z,12.50
2023-03-03T04:09:09.803Z,14.25
2023-03-03T04:11:38.659Z,13.75
2023-03-03T04:14:07.092Z,16.00
2023-03-03T04:16:40.332Z,14.25
2023-03-03T04:19:08.644Z,13.75
2023-03-03T04:21:37.004Z,13.50
2023-03-03T04:24:05.426Z,14.00
2023-03-03T04:26:34.471Z,13.25
2023-03-03T04:29:02.766Z,12.00
2023-03-03T04:31:31.152Z,15.75
2023-03-03T04:33:59.557Z,14.50
2023-03-03T04:36:36.633Z,12.50
2023-03-03T04:39:04.995Z,13.00
2023-03-03T04:41:33.441Z,14.25
2023-03-03T04:44:01.784Z,14.00
2023-03-03T04:46:30.156Z,15.00
2023-03-03T04:48:58.528Z,12.75
2023-03-03T04:51:26.878Z,13.00
2023-03-03T04:53:55.165Z,13.00
2023-03-03T04:56:23.589Z,13.25
2023-03-03T04:58:51.903Z,15.00
2023-03-03T05:01:20.671Z,13.75
2023-03-03T05:03:48.987Z,12.00
2023-03-03T05:06:19.732Z,12.00
2023-03-03T05:08:48.277Z,12.75
2023-03-03T05:11:16.561Z,11.25
2023-03-03T05:13:47.980Z,11.25
2023-03-03T05:16:18.885Z,12.75
2023-03-03T05:18:47.312Z,12.75
2023-03-03T05:21:15.772Z,12.50
2023-03-03T05:23:44.096Z,12.25
2023-03-03T05:26:12.409Z,13.75
2023-03-03T05:28:40.711Z,14.00
2023-03-03T05:31:09.023Z,14.50
2023-03-03T05:33:40.072Z,13.25
2023-03-03T05:36:08.855Z,14.50
2023-03-03T05:38:37.250Z,14.50
2023-03-03T05:41:05.712Z,11.25
2023-03-03T05:43:34.080Z,12.50
2023-03-03T05:46:02.481Z,13.50
2023-03-03T05:48:31.263Z,12.00
2023-03-03T05:51:00.727Z,13.25
2023-03-03T05:53:30.199Z,11.50
2023-03-03T05:55:58.991Z,13.25
2023-03-03T05:58:27.602Z,13.00
2023-03-03T06:00:56.014Z,11.00
2023-03-03T06:03:24.400Z,15.25
2023-03-03T06:05:52.742Z,11.75
2023-03-03T06:08:21.356Z,13.25
2023-03-03T06:10:49.730Z,12.25
2023-03-03T06:13:18.085Z,14.00
2023-03-03T06:15:46.491Z,13.00
2023-03-03T06:18:14.918Z,13.50
2023-03-03T06:20:43.243Z,12.00
2023-03-03T06:23:12.046Z,11.75
2023-03-03T06:25:40.817Z,14.25
2023-03-03T06:28:09.169Z,10.75
2023-03-03T06:30:39.007Z,12.50
2023-03-03T06:33:08.316Z,12.50
2023-03-03T06:35:36.848Z,12.50
2023-03-03T06:38:05.251Z,12.50
2023-03-03T06:40:36.927Z,12.00
2023-03-03T06:43:05.807Z,11.75
2023-03-03T06:45:34.121Z,13.00
2023-03-03T06:48:03.086Z,12.50
2023-03-03T06:50:39.738Z,13.50
2023-03-03T06:53:17.405Z,11.75
2023-03-03T06:55:46.481Z,13.00
2023-03-03T06:58:20.259Z,10.75
2023-03-03T07:00:58.846Z,15.75
2023-03-03T07:03:33.788Z,11.00
2023-03-03T07:06:05.860Z,11.00
2023-03-03T07:08:42.471Z,11.75
2023-03-03T07:11:17.455Z,11.75
2023-03-03T07:13:57.091Z,11.00
2023-03-03T07:16:29.666Z,10.25
2023-03-03T07:19:06.264Z,11.25
2023-03-03T07:21:39.787Z,9.50
2023-03-03T07:24:30.370Z,9.75
2023-03-03T07:27:21.801Z,10.50
2023-03-03T07:29:52.542Z,10.50
2023-03-03T07:32:41.309Z,10.75
2023-03-03T07:35:39.909Z,9.75
2023-03-03T07:38:43.500Z,11.75
2023-03-03T07:41:21.729Z,12.25
2023-03-03T07:43:55.567Z,11.50
2023-03-03T07:46:45.057Z,9.00
2023-03-03T07:49:24.247Z,9.50
2023-03-03T07:51:58.607Z,9.25
2023-03-03T07:54:46.894Z,10.25
2023-03-03T07:57:36.154Z,10.75
2023-03-03T08:00:19.480Z,11.25
2023-03-03T08:02:56.617Z,12.50
2023-03-03T08:05:36.852Z,10.50
2023-03-03T08:08:11.286Z,9.75
2023-03-03T08:10:40.789Z,10.00
2023-03-03T08:13:25.288Z,11.50
2023-03-03T08:16:04.352Z,10.50
2023-03-03T08:18:37.080Z,12.25
2023-03-03T08:21:15.922Z,11.50
2023-03-03T08:23:44.240Z,11.25
2023-03-03T08:26:17.883Z,8.00
2023-03-03T08:28:46.713Z,9.50
2023-03-03T08:31:22.591Z,9.25
2023-03-03T08:33:59.991Z,9.50
2023-03-03T08:36:28.310Z,10.25
2023-03-03T08:38:56.657Z,10.50
2023-03-03T08:41:25.003Z,10.50
2023-03-03T08:43:53.338Z,11.75
2023-03-03T08:46:21.663Z,11.50
2023-03-03T08:48:50.668Z,10.00
2023-03-03T08:51:18.987Z,11.00
2023-03-03T08:53:47.348Z,8.25
2023-03-03T08:56:15.638Z,10.75
2023-03-03T08:59:03.894Z,9.75
2023-03-03T09:01:36.495Z,10.00
2023-03-03T09:04:04.972Z,10.50
2023-03-03T09:06:33.304Z,11.25
2023-03-03T09:09:02.167Z,10.00
2023-03-03T09:11:31.649Z,10.00
2023-03-03T09:14:14.981Z,12.00
2023-03-03T09:16:53.835Z,12.00
2023-03-03T09:19:36.132Z,11.00
2023-03-03T09:22:25.785Z,12.75
2023-03-03T09:24:58.391Z,13.75
2023-03-03T09:27:29.479Z,11.25
2023-03-03T09:30:04.206Z,11.25
2023-03-03T09:32:40.550Z,12.25
2023-03-03T09:35:27.277Z,12.00
2023-03-03T09:37:55.639Z,11.50
2023-03-03T09:41:05.586Z,12.75
2023-03-03T09:43:47.645Z,11.00
2023-03-03T09:46:40.827Z,12.25
2023-03-03T09:49:36.574Z,12.00
2023-03-03T09:52:35.005Z,13.75
2023-03-03T09:55:22.737Z,13.75
2023-03-03T09:58:10.372Z,12.25
2023-03-03T10:00:47.863Z,13.25
2023-03-03T10:03:34.967Z,12.25
2023-03-03T10:06:38.149Z,13.50
2023-03-03T10:09:30.921Z,13.00
2023-03-03T10:12:26.985Z,12.75
2023-03-03T10:15:04.751Z,11.25
2023-03-03T10:17:56.977Z,11.00
2023-03-03T10:20:47.508Z,13.50
2023-03-03T10:23:24.304Z,12.50
2023-03-03T10:26:03.011Z,11.00
2023-03-03T10:28:56.222Z,12.25
2023-03-03T10:31:40.599Z,11.00
2023-03-03T10:34:40.305Z,11.00
2023-03-03T10:37:14.853Z,11.00
2023-03-03T10:40:06.730Z,13.25
2023-03-03T10:42:42.498Z,12.25
2023-03-03T10:48:58.021Z,9.50
2023-03-03T10:51:31.889Z,10.25
2023-03-03T10:54:18.278Z,11.75
2023-03-03T10:57:13.559Z,11.50
2023-03-03T10:59:53.736Z,9.75
2023-03-03T11:02:27.839Z,11.00
2023-03-03T11:04:59.142Z,12.75
2023-03-03T11:07:45.939Z,10.25
2023-03-03T11:10:48.089Z,13.00
2023-03-03T11:13:41.107Z,12.00
2023-03-03T11:16:48.368Z,13.50
2023-03-03T11:19:35.391Z,13.50
2023-03-03T11:22:12.453Z,12.50
2023-03-03T11:25:11.714Z,12.75
2023-03-03T11:27:58.181Z,14.50
2023-03-03T11:30:36.677Z,12.25
2023-03-03T11:33:16.248Z,13.25
2023-03-03T11:36:17.784Z,16.00
2023-03-03T11:39:03.510Z,13.50
2023-03-03T11:41:36.427Z,14.50
2023-03-03T11:44:25.745Z,17.00
2023-03-03T11:47:03.381Z,14.00
2023-03-03T11:49:57.656Z,16.50
2023-03-03T11:52:50.847Z,16.25
2023-03-03T11:55:38.689Z,17.25
2023-03-03T11:58:21.465Z,16.00
2023-03-03T12:01:08.777Z,14.00
2023-03-03T12:03:55.238Z,16.00
2023-03-03T12:06:29.887Z,12.00
2023-03-03T12:09:06.954Z,15.75
2023-03-03T12:11:40.984Z,15.25
2023-03-03T12:14:30.208Z,14.50
2023-03-03T12:17:08.227Z,15.25
2023-03-03T12:20:11.044Z,13.50
2023-03-03T12:23:11.954Z,17.25
2023-03-03T12:26:17.790Z,15.75
2023-03-03T12:29:00.926Z,15.75
2023-03-03T12:31:40.442Z,13.75
2023-03-03T12:34:20.743Z,16.75
2023-03-03T12:37:09.068Z,17.50
2023-03-03T12:39:58.094Z,17.25
2023-03-03T12:43:07.321Z,16.50
2023-03-03T12:45:57.347Z,16.75
2023-03-03T12:48:32.398Z,17.50
2023-03-03T12:51:04.423Z,18.00
2023-03-03T12:54:06.976Z,19.00
2023-03-03T12:56:40.731Z,18.25
2023-03-03T12:59:13.012Z,19.00
2023-03-03T13:02:03.056Z,20.50
2023-03-03T13:04:46.613Z,19.00
2023-03-03T13:07:41.373Z,20.75
2023-03-03T13:10:22.168Z,20.25
2023-03-03T13:13:33.599Z,20.75
2023-03-03T13:16:17.111Z,21.00
2023-03-03T13:18:57.481Z,21.50
2023-03-03T13:21:39.635Z,20.50
2023-03-03T13:24:16.729Z,21.75
2023-03-03T13:26:48.575Z,22.50
2023-03-03T13:29:36.426Z,20.25
2023-03-03T13:32:22.037Z,21.75
2023-03-03T13:35:20.603Z,21.25
2023-03-03T13:37:58.719Z,21.75
2023-03-03T13:40:53.434Z,21.25
2023-03-03T13:43:30.449Z,20.00
2023-03-03T13:46:06.929Z,21.25
2023-03-03T13:49:05.185Z,22.00
2023-03-03T13:51:53.654Z,21.00
2023-03-03T13:54:28.305Z,21.50
2023-03-03T13:57:32.193Z,20.25
2023-03-03T14:00:03.898Z,20.75
2023-03-03T14:02:55.260Z,21.75
2023-03-03T14:06:01.389Z,21.00
2023-03-03T14:08:33.293Z,21.50
2023-03-03T14:11:05.132Z,20.75
2023-03-03T14:14:06.619Z,20.50
2023-03-03T14:16:44.512Z,19.25
2023-03-03T14:19:23.480Z,22.00
2023-03-03T14:22:27.392Z,20.75
2023-03-03T14:25:07.774Z,22.50
2023-03-03T14:28:02.112Z,21.75
2023-03-03T14:30:35.168Z,21.75
2023-03-03T14:33:04.151Z,20.75
2023-03-03T14:35:46.419Z,21.00
2023-03-03T14:38:18.826Z,20.75
2023-03-03T14:40:49.639Z,21.25
2023-03-03T14:43:35.954Z,20.00
2023-03-03T14:46:38.661Z,21.25
2023-03-03T14:49:32.959Z,21.75
2023-03-03T14:52:25.285Z,20.50
2023-03-03T14:55:24.338Z,21.50
2023-03-03T14:57:53.375Z,19.75
2023-03-03T15:00:24.883Z,20.75
2023-03-03T15:03:23.141Z,21.25
2023-03-03T15:05:59.390Z,20.75
2023-03-03T15:08:37.315Z,21.50
2023-03-03T15:11:41.668Z,20.00
2023-03-03T15:14:19.988Z,20.75
2023-03-03T15:16:49.081Z,21.00
2023-03-03T15:19:35.967Z,19.50
2023-03-03T15:22:21.860Z,20.00
2023-03-03T15:25:10.910Z,20.25
2023-03-03T15:28:16.939Z,22.00
2023-03-03T15:30:52.979Z,20.50
2023-03-03T15:33:48.544Z,20.75
2023-03-03T15:36:53.511Z,20.75
2023-03-03T15:39:27.998Z,21.00
2023-03-03T15:42:08.414Z,22.50
2023-03-03T15:45:01.158Z,21.00
2023-03-03T15:47:33.062Z,21.50
2023-03-03T15:50:26.985Z,23.00
2023-03-03T15:53:11.020Z,22.25
2023-03-03T15:55:51.692Z,22.50
2023-03-03T15:58:23.623Z,22.00
2023-03-03T16:00:57.703Z,23.50
2023-03-03T16:03:37.297Z,22.75
2023-03-03T16:06:16.420Z,24.50
2023-03-03T16:09:07.285Z,24.50
2023-03-03T16:11:47.838Z,23.50
2023-03-03T16:14:22.197Z,22.25
2023-03-03T16:17:15.839Z,23.00
2023-03-03T16:20:03.934Z,24.50
2023-03-03T16:22:46.979Z,23.75
2023-03-03T16:25:33.236Z,23.50
2023-03-03T16:28:15.301Z,25.00
2023-03-03T16:31:04.895Z,23.00
2023-03-03T16:33:35.861Z,23.25
2023-03-03T16:36:30.013Z,23.00
2023-03-03T16:39:21.415Z,23.00
2023-03-03T16:42:09.262Z,24.50
2023-03-03T16:45:07.942Z,23.00
2023-03-03T16:47:48.598Z,24.50
2023-03-03T16:50:38.169Z,25.00
2023-03-03T16:53:20.067Z,25.75
2023-03-03T16:56:12.940Z,25.00
2023-03-03T16:59:02.522Z,25.50
2023-03-03T17:01:39.733Z,25.00
2023-03-03T17:04:32.106Z,25.50
2023-03-03T17:07:24.535Z,26.00
2023-03-03T17:10:33.042Z,25.00
2023-03-03T17:13:01.357Z,25.75
2023-03-03T17:16:00.468Z,24.75
2023-03-03T17:18:40.630Z,22.50
2023-03-03T17:21:34.791Z,25.00
2023-03-03T17:24:06.095Z,23.50
2023-03-03T17:26:47.343Z,25.00
2023-03-03T17:29:35.454Z,23.25
2023-03-03T17:32:45.166Z,25.00
2023-03-03T17:35:40.565Z,25.00
2023-03-03T17:38:29.775Z,25.50
2023-03-03T17:41:07.582Z,26.00
2023-03-03T17:43:54.207Z,23.00
2023-03-03T17:46:31.218Z,23.75
2023-03-03T17:49:11.687Z,25.50
2023-03-03T17:52:01.056Z,24.75
2023-03-03T17:54:41.162Z,22.00
2023-03-03T17:57:28.314Z,21.75
2023-03-03T18:00:18.209Z,22.00
2023-03-03T18:02:53.268Z,22.25
2023-03-03T18:05:37.316Z,21.50
2023-03-03T18:08:43.649Z,23.00
2023-03-03T18:11:35.283Z,21.00
2023-03-03T18:14:25.079Z,21.00
2023-03-03T18:17:11.820Z,21.50
2023-03-03T18:20:10.389Z,19.00
2023-03-03T18:22:47.930Z,20.75
2023-03-03T18:25:27.421Z,20.25
2023-03-03T18:28:02.165Z,21.00
2023-03-03T18:31:00.504Z,19.00
2023-03-03T18:33:59.343Z,20.00
2023-03-03T18:36:27.700Z,19.00
2023-03-03T18:38:58.583Z,20.00
2023-03-03T18:41:51.772Z,19.00
2023-03-03T18:44:46.892Z,20.50
2023-03-03T18:47:16.035Z,18.75
2023-03-03T18:50:16.644Z,17.25
2023-03-03T18:53:23.737Z,19.00
2023-03-03T18:56:02.617Z,17.50
2023-03-03T18:58:36.017Z,18.00
2023-03-03T19:01:11.645Z,19.00
2023-03-03T19:04:04.316Z,20.00
2023-03-03T19:06:38.717Z,19.00
2023-03-03T19:09:08.482Z,18.00
2023-03-03T19:11:58.522Z,15.50
2023-03-03T19:14:28.578Z,19.00
2023-03-03T19:17:17.284Z,18.25
2023-03-03T19:20:16.146Z,16.75
2023-03-03T19:22:53.625Z,18.50
2023-03-03T19:25:32.726Z,15.00
2023-03-03T19:28:04.008Z,19.00
2023-03-03T19:31:07.109Z,17.75
2023-03-03T19:33:57.182Z,15.75
2023-03-03T19:37:00.387Z,16.50
2023-03-03T19:39:45.833Z,17.50
2023-03-03T19:42:40.998Z,15.00
2023-03-03T19:45:18.350Z,18.25
2023-03-03T19:47:54.641Z,18.75
2023-03-03T19:50:42.372Z,16.25
2023-03-03T19:53:22.582Z,15.50
2023-03-03T19:56:07.853Z,18.00
2023-03-03T19:59:05.190Z,18.75
2023-03-03T20:02:14.840Z,17.75
2023-03-03T20:05:41.055Z,16.75
2023-03-03T20:08:27.499Z,19.00
2023-03-03T20:11:17.017Z,17.25
2023-03-03T20:13:59.037Z,19.25
2023-03-03T20:16:43.803Z,17.25
2023-03-03T20:19:55.294Z,18.75
2023-03-03T20:22:26.475Z,18.00
2023-03-03T20:25:21.380Z,18.00
2023-03-03T20:28:20.465Z,16.00
2023-03-03T20:31:11.890Z,17.75
2023-03-03T20:34:07.489Z,16.75
2023-03-03T20:36:53.823Z,18.00
2023-03-03T20:39:31.183Z,16.00
2023-03-03T20:42:19.326Z,17.25
2023-03-03T20:45:12.498Z,17.50
2023-03-03T20:48:07.174Z,18.25
2023-03-03T20:50:59.711Z,17.00
2023-03-03T20:53:46.549Z,18.75
2023-03-03T20:56:29.954Z,17.25
2023-03-03T20:59:16.613Z,17.25
2023-03-03T21:02:03.608Z,17.50
2023-03-03T21:04:34.569Z,16.00
2023-03-03T21:07:05.296Z,17.50
2023-03-03T21:09:39.831Z,16.50
2023-03-03T21:12:30.951Z,17.25
2023-03-03T21:15:04.625Z,17.00
2023-03-03T21:17:33.378Z,17.75
2023-03-03T21:20:31.339Z,13.50
2023-03-03T21:23:01.207Z,15.25
2023-03-03T21:25:42.066Z,16.75
2023-03-03T21:28:31.317Z,15.75
2023-03-03T21:31:16.658Z,16.75
2023-03-03T21:33:59.029Z,15.00
2023-03-03T21:36:33.579Z,15.75
2023-03-03T21:39:03.143Z,15.50
2023-03-03T21:41:54.154Z,15.00
2023-03-03T21:44:34.517Z,14.25
2023-03-03T21:47:03.749Z,15.50
2023-03-03T21:49:32.098Z,15.25
2023-03-03T21:52:01.009Z,16.00
2023-03-03T21:54:30.328Z,16.75
2023-03-03T21:56:58.677Z,14.25
2023-03-03T21:59:27.048Z,15.00
2023-03-03T22:01:55.419Z,13.25
2023-03-03T22:04:23.931Z,15.00
2023-03-03T22:06:53.659Z,14.00
2023-03-03T22:09:22.350Z,14.75
2023-03-03T22:11:50.795Z,15.25
2023-03-03T22:14:19.514Z,14.00
2023-03-03T22:16:47.930Z,15.75
2023-03-03T22:19:16.271Z,16.25
2023-03-03T22:21:45.020Z,15.00
2023-03-03T22:24:13.617Z,15.75
2023-03-03T22:26:41.889Z,13.50
2023-03-03T22:29:11.162Z,13.25
2023-03-03T22:31:39.555Z,15.25
2023-03-03T22:34:08.007Z,15.75
2023-03-03T22:36:36.341Z,14.50
2023-03-03T22:39:04.644Z,15.75
2023-03-03T22:41:33.779Z,16.00
2023-03-03T22:44:02.070Z,16.75
2023-03-03T22:46:30.427Z,16.00
2023-03-03T22:48:58.732Z,16.00
2023-03-03T22:51:27.318Z,15.00
2023-03-03T22:53:55.697Z,15.00
2023-03-03T22:56:24.073Z,14.50
2023-03-03T22:58:52.385Z,13.00
2023-03-03T23:01:20.699Z,11.75
2023-03-03T23:03:51.052Z,14.50
2023-03-03T23:06:19.441Z,15.00
2023-03-03T23:08:47.824Z,15.75
2023-03-03T23:11:16.183Z,12.00
2023-03-03T23:13:44.484Z,14.50
2023-03-03T23:16:12.894Z,12.25
2023-03-03T23:18:41.269Z,12.75
2023-03-03T23:21:09.652Z,15.50
2023-03-03T23:23:38.228Z,13.50
2023-03-03T23:26:06.687Z,15.75
2023-03-03T23:28:35.348Z,13.50
2023-03-03T23:31:03.685Z,13.50
2023-03-03T23:33:32.090Z,12.75
2023-03-03T23:36:00.467Z,15.50
2023-03-03T23:38:28.825Z,13.75
2023-03-03T23:40:57.135Z,14.00
2023-03-03T23:43:25.473Z,15.25
2023-03-03T23:45:53.804Z,14.00
2023-03-03T23:48:22.195Z,17.00
2023-03-03T23:50:50.760Z,14.50
2023-03-03T23:53:20.348Z,14.75
2023-03-03T23:55:48.744Z,13.50
2023-03-03T23:58:17.125Z,16.00
